sensor_id;sensor_type;location;lat;lon;timestamp;P1;durP1;ratioP1;P2;durP2;ratioP2
22131;SDS011;11232;51.748;19.390;2022-11-15T00:00:17;90.27;;;34.30;;
22131;SDS011;11232;51.748;19.390;2022-11-15T00:02:43;96.97;;;34.97;;
22131;SDS011;11232;51.748;19.390;2022-11-15T00:05:08;92.17;;;34.03;;
22131;SDS011;11232;51.748;19.390;2022-11-15T00:07:34;89.60;;;36.03;;
22131;SDS011;11232;51.748;19.390;2022-11-15T00:10:00;95.60;;;35.40;;
22131;SDS011;11232;51.748;19.390;2022-11-15T00:12:26;94.30;;;34.20;;
22131;SDS011;11232;51.748;19.390;2022-11-15T00:14:53;93.27;;;34.00;;
22131;SDS011;11232;51.748;19.390;2022-11-15T00:17:18;112.87;;;33.63;;
22131;SDS011;11232;51.748;19.390;2022-11-15T00:19:44;92.10;;;34.13;;
22131;SDS011;11232;51.748;19.390;2022-11-15T00:22:10;93.70;;;34.07;;
22131;SDS011;11232;51.748;19.390;2022-11-15T00:24:35;83.13;;;33.43;;
22131;SDS011;11232;51.748;19.390;2022-11-15T00:27:01;92.23;;;33.50;;
22131;SDS011;11232;51.748;19.390;2022-11-15T00:29:27;95.50;;;34.13;;
22131;SDS011;11232;51.748;19.390;2022-11-15T00:31:52;110.07;;;34.07;;
22131;SDS011;11232;51.748;19.390;2022-11-15T00:34:18;87.17;;;33.87;;
22131;SDS011;11232;51.748;19.390;2022-11-15T00:36:44;98.07;;;35.00;;
22131;SDS011;11232;51.748;19.390;2022-11-15T00:39:09;95.23;;;35.53;;
22131;SDS011;11232;51.748;19.390;2022-11-15T00:41:35;91.97;;;33.53;;
22131;SDS011;11232;51.748;19.390;2022-11-15T00:44:00;86.13;;;33.87;;
22131;SDS011;11232;51.748;19.390;2022-11-15T00:46:26;94.97;;;35.13;;
22131;SDS011;11232;51.748;19.390;2022-11-15T00:48:52;91.57;;;34.13;;
22131;SDS011;11232;51.748;19.390;2022-11-15T00:51:17;92.13;;;32.93;;
22131;SDS011;11232;51.748;19.390;2022-11-15T00:56:55;91.43;;;31.73;;
22131;SDS011;11232;51.748;19.390;2022-11-15T00:59:21;102.47;;;33.90;;
22131;SDS011;11232;51.748;19.390;2022-11-15T01:01:46;100.33;;;33.17;;
22131;SDS011;11232;51.748;19.390;2022-11-15T01:04:12;101.47;;;33.53;;
22131;SDS011;11232;51.748;19.390;2022-11-15T01:06:38;96.60;;;35.77;;
22131;SDS011;11232;51.748;19.390;2022-11-15T01:09:04;96.37;;;33.80;;
22131;SDS011;11232;51.748;19.390;2022-11-15T01:11:30;99.03;;;33.07;;
22131;SDS011;11232;51.748;19.390;2022-11-15T01:13:55;95.87;;;32.37;;
22131;SDS011;11232;51.748;19.390;2022-11-15T01:16:21;95.80;;;34.23;;
22131;SDS011;11232;51.748;19.390;2022-11-15T01:18:47;108.07;;;35.00;;
22131;SDS011;11232;51.748;19.390;2022-11-15T01:21:13;111.80;;;35.43;;
22131;SDS011;11232;51.748;19.390;2022-11-15T01:23:41;106.93;;;35.83;;
22131;SDS011;11232;51.748;19.390;2022-11-15T01:26:09;99.67;;;34.27;;
22131;SDS011;11232;51.748;19.390;2022-11-15T01:28:37;98.43;;;34.53;;
22131;SDS011;11232;51.748;19.390;2022-11-15T01:31:05;97.67;;;34.47;;
22131;SDS011;11232;51.748;19.390;2022-11-15T01:33:33;93.03;;;34.17;;
22131;SDS011;11232;51.748;19.390;2022-11-15T01:36:05;95.37;;;34.30;;
22131;SDS011;11232;51.748;19.390;2022-11-15T01:38:32;94.03;;;33.90;;
22131;SDS011;11232;51.748;19.390;2022-11-15T01:40:58;102.03;;;33.80;;
22131;SDS011;11232;51.748;19.390;2022-11-15T01:43:28;103.30;;;33.63;;
22131;SDS011;11232;51.748;19.390;2022-11-15T01:46:02;96.67;;;32.53;;
22131;SDS011;11232;51.748;19.390;2022-11-15T01:48:48;98.23;;;33.30;;
22131;SDS011;11232;51.748;19.390;2022-11-15T01:51:16;96.27;;;33.57;;
22131;SDS011;11232;51.748;19.390;2022-11-15T01:53:45;86.53;;;32.23;;
22131;SDS011;11232;51.748;19.390;2022-11-15T01:56:16;105.73;;;35.07;;
22131;SDS011;11232;51.748;19.390;2022-11-15T01:58:44;86.70;;;33.10;;
22131;SDS011;11232;51.748;19.390;2022-11-15T02:01:11;92.83;;;31.73;;
22131;SDS011;11232;51.748;19.390;2022-11-15T02:04:21;92.87;;;33.07;;
22131;SDS011;11232;51.748;19.390;2022-11-15T02:06:30;100.97;;;32.70;;
22131;SDS011;11232;51.748;19.390;2022-11-15T02:08:56;85.97;;;30.33;;
22131;SDS011;11232;51.748;19.390;2022-11-15T02:11:23;88.93;;;31.30;;
22131;SDS011;11232;51.748;19.390;2022-11-15T02:13:49;90.63;;;31.27;;
22131;SDS011;11232;51.748;19.390;2022-11-15T02:16:58;93.23;;;31.63;;
22131;SDS011;11232;51.748;19.390;2022-11-15T02:24:48;85.63;;;29.83;;
22131;SDS011;11232;51.748;19.390;2022-11-15T02:30:44;82.03;;;27.70;;
22131;SDS011;11232;51.748;19.390;2022-11-15T02:33:33;87.93;;;28.27;;
22131;SDS011;11232;51.748;19.390;2022-11-15T02:36:09;96.83;;;27.17;;
22131;SDS011;11232;51.748;19.390;2022-11-15T02:39:01;75.80;;;27.57;;
22131;SDS011;11232;51.748;19.390;2022-11-15T02:44:20;86.77;;;27.47;;
22131;SDS011;11232;51.748;19.390;2022-11-15T02:46:54;82.97;;;29.40;;
22131;SDS011;11232;51.748;19.390;2022-11-15T02:52:19;94.43;;;29.63;;
22131;SDS011;11232;51.748;19.390;2022-11-15T02:54:56;100.50;;;27.67;;
22131;SDS011;11232;51.748;19.390;2022-11-15T02:57:51;82.43;;;27.47;;
22131;SDS011;11232;51.748;19.390;2022-11-15T03:00:17;82.67;;;27.60;;
22131;SDS011;11232;51.748;19.390;2022-11-15T03:05:51;80.47;;;26.43;;
22131;SDS011;11232;51.748;19.390;2022-11-15T03:08:50;79.27;;;28.00;;
22131;SDS011;11232;51.748;19.390;2022-11-15T03:11:28;72.33;;;24.87;;
22131;SDS011;11232;51.748;19.390;2022-11-15T03:13:58;72.43;;;26.63;;
22131;SDS011;11232;51.748;19.390;2022-11-15T03:19:22;76.50;;;26.70;;
22131;SDS011;11232;51.748;19.390;2022-11-15T03:22:04;78.67;;;26.53;;
22131;SDS011;11232;51.748;19.390;2022-11-15T03:24:34;80.77;;;27.20;;
22131;SDS011;11232;51.748;19.390;2022-11-15T03:27:03;70.00;;;25.37;;
22131;SDS011;11232;51.748;19.390;2022-11-15T03:29:32;71.90;;;26.27;;
22131;SDS011;11232;51.748;19.390;2022-11-15T03:32:07;78.43;;;24.73;;
22131;SDS011;11232;51.748;19.390;2022-11-15T03:34:52;101.47;;;24.90;;
22131;SDS011;11232;51.748;19.390;2022-11-15T03:37:37;88.47;;;25.60;;
22131;SDS011;11232;51.748;19.390;2022-11-15T03:40:06;63.47;;;23.50;;
22131;SDS011;11232;51.748;19.390;2022-11-15T03:45:12;66.80;;;24.17;;
22131;SDS011;11232;51.748;19.390;2022-11-15T03:47:49;94.47;;;23.97;;
22131;SDS011;11232;51.748;19.390;2022-11-15T03:50:19;69.07;;;24.53;;
22131;SDS011;11232;51.748;19.390;2022-11-15T03:52:47;85.40;;;25.33;;
22131;SDS011;11232;51.748;19.390;2022-11-15T03:55:18;69.87;;;23.57;;
22131;SDS011;11232;51.748;19.390;2022-11-15T03:57:45;74.20;;;24.63;;
22131;SDS011;11232;51.748;19.390;2022-11-15T04:00:14;65.00;;;23.63;;
22131;SDS011;11232;51.748;19.390;2022-11-15T04:02:40;68.93;;;24.00;;
22131;SDS011;11232;51.748;19.390;2022-11-15T04:05:06;66.57;;;25.30;;
22131;SDS011;11232;51.748;19.390;2022-11-15T04:07:32;80.73;;;22.00;;
22131;SDS011;11232;51.748;19.390;2022-11-15T04:09:57;66.23;;;23.30;;
22131;SDS011;11232;51.748;19.390;2022-11-15T04:12:30;79.43;;;23.40;;
22131;SDS011;11232;51.748;19.390;2022-11-15T04:15:00;65.83;;;23.60;;
22131;SDS011;11232;51.748;19.390;2022-11-15T04:17:35;69.77;;;23.87;;
22131;SDS011;11232;51.748;19.390;2022-11-15T04:20:07;74.37;;;23.60;;
22131;SDS011;11232;51.748;19.390;2022-11-15T04:22:57;65.77;;;22.23;;
22131;SDS011;11232;51.748;19.390;2022-11-15T04:25:42;59.77;;;23.77;;
22131;SDS011;11232;51.748;19.390;2022-11-15T04:28:09;76.57;;;22.53;;
22131;SDS011;11232;51.748;19.390;2022-11-15T04:30:35;63.83;;;22.70;;
22131;SDS011;11232;51.748;19.390;2022-11-15T04:33:01;65.80;;;22.23;;
22131;SDS011;11232;51.748;19.390;2022-11-15T04:35:26;67.83;;;24.03;;
22131;SDS011;11232;51.748;19.390;2022-11-15T04:37:53;71.03;;;23.43;;
22131;SDS011;11232;51.748;19.390;2022-11-15T04:40:19;62.90;;;22.30;;
22131;SDS011;11232;51.748;19.390;2022-11-15T04:42:45;73.27;;;22.67;;
22131;SDS011;11232;51.748;19.390;2022-11-15T04:45:10;76.17;;;21.90;;
22131;SDS011;11232;51.748;19.390;2022-11-15T04:47:36;75.63;;;23.87;;
22131;SDS011;11232;51.748;19.390;2022-11-15T04:50:02;74.73;;;22.87;;
22131;SDS011;11232;51.748;19.390;2022-11-15T04:52:28;83.10;;;24.37;;
22131;SDS011;11232;51.748;19.390;2022-11-15T04:54:54;59.50;;;21.93;;
22131;SDS011;11232;51.748;19.390;2022-11-15T04:57:19;58.13;;;22.90;;
22131;SDS011;11232;51.748;19.390;2022-11-15T04:59:45;62.20;;;23.93;;
22131;SDS011;11232;51.748;19.390;2022-11-15T05:02:11;78.40;;;24.80;;
22131;SDS011;11232;51.748;19.390;2022-11-15T05:04:38;73.43;;;23.83;;
22131;SDS011;11232;51.748;19.390;2022-11-15T05:07:04;73.87;;;23.83;;
22131;SDS011;11232;51.748;19.390;2022-11-15T05:09:30;76.03;;;24.53;;
22131;SDS011;11232;51.748;19.390;2022-11-15T05:11:55;61.43;;;23.67;;
22131;SDS011;11232;51.748;19.390;2022-11-15T05:14:21;92.53;;;24.67;;
22131;SDS011;11232;51.748;19.390;2022-11-15T05:16:47;77.03;;;25.23;;
22131;SDS011;11232;51.748;19.390;2022-11-15T05:19:13;73.33;;;23.90;;
22131;SDS011;11232;51.748;19.390;2022-11-15T05:21:38;93.50;;;26.03;;
22131;SDS011;11232;51.748;19.390;2022-11-15T05:24:04;76.93;;;24.40;;
22131;SDS011;11232;51.748;19.390;2022-11-15T05:26:31;69.73;;;24.27;;
22131;SDS011;11232;51.748;19.390;2022-11-15T05:28:57;74.30;;;23.23;;
22131;SDS011;11232;51.748;19.390;2022-11-15T05:31:24;68.17;;;25.10;;
22131;SDS011;11232;51.748;19.390;2022-11-15T05:33:50;125.83;;;25.73;;
22131;SDS011;11232;51.748;19.390;2022-11-15T05:38:54;66.27;;;24.30;;
22131;SDS011;11232;51.748;19.390;2022-11-15T05:41:37;106.13;;;23.97;;
22131;SDS011;11232;51.748;19.390;2022-11-15T05:44:16;90.03;;;24.27;;
22131;SDS011;11232;51.748;19.390;2022-11-15T05:46:45;75.77;;;24.00;;
22131;SDS011;11232;51.748;19.390;2022-11-15T05:49:13;73.57;;;24.23;;
22131;SDS011;11232;51.748;19.390;2022-11-15T05:51:41;71.40;;;23.73;;
22131;SDS011;11232;51.748;19.390;2022-11-15T05:54:08;75.50;;;25.13;;
22131;SDS011;11232;51.748;19.390;2022-11-15T05:56:35;95.33;;;23.77;;
22131;SDS011;11232;51.748;19.390;2022-11-15T05:59:01;94.63;;;24.63;;
22131;SDS011;11232;51.748;19.390;2022-11-15T06:01:27;111.57;;;24.13;;
22131;SDS011;11232;51.748;19.390;2022-11-15T06:03:53;80.37;;;23.93;;
22131;SDS011;11232;51.748;19.390;2022-11-15T06:06:19;69.73;;;23.43;;
22131;SDS011;11232;51.748;19.390;2022-11-15T06:08:45;66.67;;;24.13;;
22131;SDS011;11232;51.748;19.390;2022-11-15T06:11:10;79.80;;;24.87;;
22131;SDS011;11232;51.748;19.390;2022-11-15T06:13:36;95.10;;;25.13;;
22131;SDS011;11232;51.748;19.390;2022-11-15T06:16:01;76.77;;;25.07;;
22131;SDS011;11232;51.748;19.390;2022-11-15T06:18:27;75.90;;;23.33;;
22131;SDS011;11232;51.748;19.390;2022-11-15T06:20:53;72.20;;;25.10;;
22131;SDS011;11232;51.748;19.390;2022-11-15T06:23:23;101.70;;;23.27;;
22131;SDS011;11232;51.748;19.390;2022-11-15T06:25:48;70.37;;;24.07;;
22131;SDS011;11232;51.748;19.390;2022-11-15T06:28:14;75.83;;;23.20;;
22131;SDS011;11232;51.748;19.390;2022-11-15T06:30:39;101.87;;;24.77;;
22131;SDS011;11232;51.748;19.390;2022-11-15T06:33:05;81.87;;;23.57;;
22131;SDS011;11232;51.748;19.390;2022-11-15T06:35:32;67.60;;;23.93;;
22131;SDS011;11232;51.748;19.390;2022-11-15T06:38:03;61.27;;;22.17;;
22131;SDS011;11232;51.748;19.390;2022-11-15T06:40:33;99.13;;;23.00;;
22131;SDS011;11232;51.748;19.390;2022-11-15T06:43:00;56.50;;;21.80;;
22131;SDS011;11232;51.748;19.390;2022-11-15T06:45:25;100.80;;;24.60;;
22131;SDS011;11232;51.748;19.390;2022-11-15T06:47:51;72.97;;;22.50;;
22131;SDS011;11232;51.748;19.390;2022-11-15T06:50:17;60.90;;;22.83;;
22131;SDS011;11232;51.748;19.390;2022-11-15T06:52:42;68.93;;;23.50;;
22131;SDS011;11232;51.748;19.390;2022-11-15T06:55:08;62.73;;;23.63;;
22131;SDS011;11232;51.748;19.390;2022-11-15T06:57:34;72.57;;;23.60;;
22131;SDS011;11232;51.748;19.390;2022-11-15T07:00:00;71.33;;;23.13;;
22131;SDS011;11232;51.748;19.390;2022-11-15T07:02:26;61.47;;;23.07;;
22131;SDS011;11232;51.748;19.390;2022-11-15T07:04:52;60.57;;;22.27;;
22131;SDS011;11232;51.748;19.390;2022-11-15T07:07:18;86.07;;;22.40;;
22131;SDS011;11232;51.748;19.390;2022-11-15T07:09:43;64.57;;;22.77;;
22131;SDS011;11232;51.748;19.390;2022-11-15T07:12:09;56.53;;;21.77;;
22131;SDS011;11232;51.748;19.390;2022-11-15T07:14:34;66.03;;;21.53;;
22131;SDS011;11232;51.748;19.390;2022-11-15T07:17:02;54.50;;;21.67;;
22131;SDS011;11232;51.748;19.390;2022-11-15T07:19:28;51.63;;;22.80;;
22131;SDS011;11232;51.748;19.390;2022-11-15T07:21:54;57.40;;;21.37;;
22131;SDS011;11232;51.748;19.390;2022-11-15T07:24:19;47.43;;;21.00;;
22131;SDS011;11232;51.748;19.390;2022-11-15T07:26:45;54.20;;;22.33;;
22131;SDS011;11232;51.748;19.390;2022-11-15T07:29:11;55.40;;;22.07;;
22131;SDS011;11232;51.748;19.390;2022-11-15T07:31:36;58.27;;;21.83;;
22131;SDS011;11232;51.748;19.390;2022-11-15T07:34:02;51.77;;;23.30;;
22131;SDS011;11232;51.748;19.390;2022-11-15T07:36:28;50.27;;;22.50;;
22131;SDS011;11232;51.748;19.390;2022-11-15T07:38:54;53.70;;;21.83;;
22131;SDS011;11232;51.748;19.390;2022-11-15T07:41:19;49.53;;;21.57;;
22131;SDS011;11232;51.748;19.390;2022-11-15T07:43:45;53.77;;;21.63;;
22131;SDS011;11232;51.748;19.390;2022-11-15T07:46:10;49.63;;;22.17;;
22131;SDS011;11232;51.748;19.390;2022-11-15T07:48:37;51.83;;;22.80;;
22131;SDS011;11232;51.748;19.390;2022-11-15T07:51:05;50.70;;;23.03;;
22131;SDS011;11232;51.748;19.390;2022-11-15T07:53:31;47.23;;;21.00;;
22131;SDS011;11232;51.748;19.390;2022-11-15T07:55:57;51.90;;;22.37;;
22131;SDS011;11232;51.748;19.390;2022-11-15T07:58:22;49.80;;;22.70;;
22131;SDS011;11232;51.748;19.390;2022-11-15T08:00:48;52.80;;;22.40;;
22131;SDS011;11232;51.748;19.390;2022-11-15T08:03:14;41.87;;;21.07;;
22131;SDS011;11232;51.748;19.390;2022-11-15T08:05:42;45.40;;;22.57;;
22131;SDS011;11232;51.748;19.390;2022-11-15T08:08:09;45.20;;;21.60;;
22131;SDS011;11232;51.748;19.390;2022-11-15T08:10:36;42.00;;;21.13;;
22131;SDS011;11232;51.748;19.390;2022-11-15T08:13:08;46.27;;;21.30;;
22131;SDS011;11232;51.748;19.390;2022-11-15T08:15:35;41.40;;;20.80;;
22131;SDS011;11232;51.748;19.390;2022-11-15T08:18:02;42.77;;;21.53;;
22131;SDS011;11232;51.748;19.390;2022-11-15T08:20:29;43.43;;;20.83;;
22131;SDS011;11232;51.748;19.390;2022-11-15T08:22:57;47.50;;;22.23;;
22131;SDS011;11232;51.748;19.390;2022-11-15T08:25:24;47.23;;;22.40;;
22131;SDS011;11232;51.748;19.390;2022-11-15T08:27:58;40.40;;;21.57;;
22131;SDS011;11232;51.748;19.390;2022-11-15T08:30:25;43.60;;;20.33;;
22131;SDS011;11232;51.748;19.390;2022-11-15T08:32:52;39.77;;;22.00;;
22131;SDS011;11232;51.748;19.390;2022-11-15T08:35:19;38.63;;;19.80;;
22131;SDS011;11232;51.748;19.390;2022-11-15T08:37:45;44.63;;;21.67;;
22131;SDS011;11232;51.748;19.390;2022-11-15T08:40:11;39.43;;;21.13;;
22131;SDS011;11232;51.748;19.390;2022-11-15T08:42:38;39.70;;;20.53;;
22131;SDS011;11232;51.748;19.390;2022-11-15T08:45:05;32.83;;;19.65;;
22131;SDS011;11232;51.748;19.390;2022-11-15T08:47:32;32.88;;;20.27;;
22131;SDS011;11232;51.748;19.390;2022-11-15T08:49:58;34.53;;;19.58;;
22131;SDS011;11232;51.748;19.390;2022-11-15T08:52:23;31.77;;;20.08;;
22131;SDS011;11232;51.748;19.390;2022-11-15T08:54:49;29.63;;;20.00;;
22131;SDS011;11232;51.748;19.390;2022-11-15T08:57:15;30.58;;;19.92;;
22131;SDS011;11232;51.748;19.390;2022-11-15T08:59:41;34.10;;;19.95;;
22131;SDS011;11232;51.748;19.390;2022-11-15T09:02:10;28.23;;;19.48;;
22131;SDS011;11232;51.748;19.390;2022-11-15T09:04:39;30.20;;;19.60;;
22131;SDS011;11232;51.748;19.390;2022-11-15T09:07:09;30.95;;;20.30;;
22131;SDS011;11232;51.748;19.390;2022-11-15T09:09:35;30.30;;;20.13;;
22131;SDS011;11232;51.748;19.390;2022-11-15T09:12:01;29.15;;;20.88;;
22131;SDS011;11232;51.748;19.390;2022-11-15T09:14:27;30.77;;;20.02;;
22131;SDS011;11232;51.748;19.390;2022-11-15T09:16:53;26.50;;;19.42;;
22131;SDS011;11232;51.748;19.390;2022-11-15T09:19:18;29.42;;;20.23;;
22131;SDS011;11232;51.748;19.390;2022-11-15T09:21:44;27.80;;;19.63;;
22131;SDS011;11232;51.748;19.390;2022-11-15T09:24:10;31.73;;;20.25;;
22131;SDS011;11232;51.748;19.390;2022-11-15T09:26:35;27.83;;;20.17;;
22131;SDS011;11232;51.748;19.390;2022-11-15T09:29:01;28.35;;;19.23;;
22131;SDS011;11232;51.748;19.390;2022-11-15T09:31:27;26.92;;;19.33;;
22131;SDS011;11232;51.748;19.390;2022-11-15T09:33:54;24.50;;;18.77;;
22131;SDS011;11232;51.748;19.390;2022-11-15T09:36:20;26.27;;;19.38;;
22131;SDS011;11232;51.748;19.390;2022-11-15T09:38:45;25.95;;;19.50;;
22131;SDS011;11232;51.748;19.390;2022-11-15T09:49:43;25.15;;;20.48;;
22131;SDS011;11232;51.748;19.390;2022-11-15T09:52:08;24.20;;;18.83;;
22131;SDS011;11232;51.748;19.390;2022-11-15T09:54:36;24.95;;;19.25;;
22131;SDS011;11232;51.748;19.390;2022-11-15T09:57:05;30.35;;;20.60;;
22131;SDS011;11232;51.748;19.390;2022-11-15T10:05:15;23.63;;;18.35;;
22131;SDS011;11232;51.748;19.390;2022-11-15T10:10:46;24.20;;;18.88;;
22131;SDS011;11232;51.748;19.390;2022-11-15T10:13:16;24.45;;;18.05;;
22131;SDS011;11232;51.748;19.390;2022-11-15T10:21:17;25.92;;;17.88;;
22131;SDS011;11232;51.748;19.390;2022-11-15T10:23:48;23.10;;;17.77;;
22131;SDS011;11232;51.748;19.390;2022-11-15T10:26:16;24.70;;;17.45;;
22131;SDS011;11232;51.748;19.390;2022-11-15T10:28:42;25.05;;;19.48;;
22131;SDS011;11232;51.748;19.390;2022-11-15T10:31:21;26.52;;;19.73;;
22131;SDS011;11232;51.748;19.390;2022-11-15T10:33:48;25.77;;;19.25;;
22131;SDS011;11232;51.748;19.390;2022-11-15T10:36:19;25.55;;;18.67;;
22131;SDS011;11232;51.748;19.390;2022-11-15T10:41:16;22.83;;;17.80;;
22131;SDS011;11232;51.748;19.390;2022-11-15T10:43:42;24.40;;;17.65;;
22131;SDS011;11232;51.748;19.390;2022-11-15T10:46:19;23.52;;;17.95;;
22131;SDS011;11232;51.748;19.390;2022-11-15T10:48:45;24.13;;;19.38;;
22131;SDS011;11232;51.748;19.390;2022-11-15T10:51:46;24.20;;;17.98;;
22131;SDS011;11232;51.748;19.390;2022-11-15T10:54:11;23.52;;;18.17;;
22131;SDS011;11232;51.748;19.390;2022-11-15T10:56:39;22.00;;;17.08;;
22131;SDS011;11232;51.748;19.390;2022-11-15T10:59:13;24.08;;;18.90;;
22131;SDS011;11232;51.748;19.390;2022-11-15T11:01:46;23.63;;;18.15;;
22131;SDS011;11232;51.748;19.390;2022-11-15T11:04:12;23.77;;;18.42;;
22131;SDS011;11232;51.748;19.390;2022-11-15T11:09:33;21.83;;;17.08;;
22131;SDS011;11232;51.748;19.390;2022-11-15T11:12:01;23.90;;;17.90;;
22131;SDS011;11232;51.748;19.390;2022-11-15T11:14:29;25.30;;;18.23;;
22131;SDS011;11232;51.748;19.390;2022-11-15T11:19:56;22.25;;;18.08;;
22131;SDS011;11232;51.748;19.390;2022-11-15T11:23:03;25.63;;;18.60;;
22131;SDS011;11232;51.748;19.390;2022-11-15T11:28:12;23.30;;;18.35;;
22131;SDS011;11232;51.748;19.390;2022-11-15T11:31:14;22.42;;;17.52;;
22131;SDS011;11232;51.748;19.390;2022-11-15T11:33:49;24.48;;;16.92;;
22131;SDS011;11232;51.748;19.390;2022-11-15T11:36:47;24.88;;;18.55;;
22131;SDS011;11232;51.748;19.390;2022-11-15T11:41:59;22.08;;;18.20;;
22131;SDS011;11232;51.748;19.390;2022-11-15T11:47:39;24.40;;;18.00;;
22131;SDS011;11232;51.748;19.390;2022-11-15T11:52:54;23.95;;;18.17;;
22131;SDS011;11232;51.748;19.390;2022-11-15T11:55:36;21.73;;;16.90;;
22131;SDS011;11232;51.748;19.390;2022-11-15T11:58:11;21.98;;;17.30;;
22131;SDS011;11232;51.748;19.390;2022-11-15T12:00:54;22.42;;;17.00;;
22131;SDS011;11232;51.748;19.390;2022-11-15T12:16:58;21.73;;;16.70;;
22131;SDS011;11232;51.748;19.390;2022-11-15T12:19:25;28.15;;;17.52;;
22131;SDS011;11232;51.748;19.390;2022-11-15T12:22:00;23.08;;;18.13;;
22131;SDS011;11232;51.748;19.390;2022-11-15T12:24:37;22.50;;;17.48;;
22131;SDS011;11232;51.748;19.390;2022-11-15T12:27:17;22.85;;;16.88;;
22131;SDS011;11232;51.748;19.390;2022-11-15T12:29:58;24.45;;;17.75;;
22131;SDS011;11232;51.748;19.390;2022-11-15T12:32:47;24.27;;;18.05;;
22131;SDS011;11232;51.748;19.390;2022-11-15T12:35:26;25.27;;;18.70;;
22131;SDS011;11232;51.748;19.390;2022-11-15T12:37:57;22.05;;;17.45;;
22131;SDS011;11232;51.748;19.390;2022-11-15T12:40:39;24.55;;;17.70;;
22131;SDS011;11232;51.748;19.390;2022-11-15T12:43:53;22.75;;;17.58;;
22131;SDS011;11232;51.748;19.390;2022-11-15T12:48:55;23.10;;;17.10;;
22131;SDS011;11232;51.748;19.390;2022-11-15T13:02:26;30.88;;;18.33;;
22131;SDS011;11232;51.748;19.390;2022-11-15T13:28:31;29.55;;;20.60;;
22131;SDS011;11232;51.748;19.390;2022-11-15T13:31:01;28.25;;;19.40;;
22131;SDS011;11232;51.748;19.390;2022-11-15T13:33:39;27.92;;;19.75;;
22131;SDS011;11232;51.748;19.390;2022-11-15T13:39:04;28.00;;;20.00;;
22131;SDS011;11232;51.748;19.390;2022-11-15T13:41:32;31.90;;;20.83;;
22131;SDS011;11232;51.748;19.390;2022-11-15T13:44:00;30.48;;;20.40;;
22131;SDS011;11232;51.748;19.390;2022-11-15T13:46:31;32.15;;;20.85;;
22131;SDS011;11232;51.748;19.390;2022-11-15T13:49:05;33.53;;;20.33;;
22131;SDS011;11232;51.748;19.390;2022-11-15T13:51:49;33.90;;;20.17;;
22131;SDS011;11232;51.748;19.390;2022-11-15T13:54:41;32.58;;;20.80;;
22131;SDS011;11232;51.748;19.390;2022-11-15T13:57:29;33.78;;;19.92;;
22131;SDS011;11232;51.748;19.390;2022-11-15T14:00:25;32.55;;;20.08;;
22131;SDS011;11232;51.748;19.390;2022-11-15T14:03:24;31.90;;;19.50;;
22131;SDS011;11232;51.748;19.390;2022-11-15T14:06:11;32.80;;;20.38;;
22131;SDS011;11232;51.748;19.390;2022-11-15T14:08:40;36.42;;;20.02;;
22131;SDS011;11232;51.748;19.390;2022-11-15T14:11:26;31.40;;;20.15;;
22131;SDS011;11232;51.748;19.390;2022-11-15T14:16:36;31.70;;;19.08;;
22131;SDS011;11232;51.748;19.390;2022-11-15T14:19:04;33.97;;;20.23;;
22131;SDS011;11232;51.748;19.390;2022-11-15T14:21:31;34.78;;;20.52;;
22131;SDS011;11232;51.748;19.390;2022-11-15T14:26:42;37.25;;;19.45;;
22131;SDS011;11232;51.748;19.390;2022-11-15T14:29:27;39.22;;;20.77;;
22131;SDS011;11232;51.748;19.390;2022-11-15T14:31:54;37.25;;;21.90;;
22131;SDS011;11232;51.748;19.390;2022-11-15T14:34:38;36.17;;;21.05;;
22131;SDS011;11232;51.748;19.390;2022-11-15T14:37:03;40.22;;;21.42;;
22131;SDS011;11232;51.748;19.390;2022-11-15T14:39:29;36.10;;;20.58;;
22131;SDS011;11232;51.748;19.390;2022-11-15T14:41:55;40.47;;;22.70;;
22131;SDS011;11232;51.748;19.390;2022-11-15T14:44:20;36.83;;;21.25;;
22131;SDS011;11232;51.748;19.390;2022-11-15T14:46:47;37.28;;;21.30;;
22131;SDS011;11232;51.748;19.390;2022-11-15T14:49:13;39.80;;;22.90;;
22131;SDS011;11232;51.748;19.390;2022-11-15T14:51:40;41.28;;;22.27;;
22131;SDS011;11232;51.748;19.390;2022-11-15T14:54:08;44.95;;;23.02;;
22131;SDS011;11232;51.748;19.390;2022-11-15T14:56:35;36.92;;;21.52;;
22131;SDS011;11232;51.748;19.390;2022-11-15T14:59:01;36.47;;;20.93;;
22131;SDS011;11232;51.748;19.390;2022-11-15T15:01:26;39.37;;;22.20;;
22131;SDS011;11232;51.748;19.390;2022-11-15T15:03:52;40.57;;;22.40;;
22131;SDS011;11232;51.748;19.390;2022-11-15T15:06:21;35.97;;;21.80;;
22131;SDS011;11232;51.748;19.390;2022-11-15T15:08:47;43.23;;;22.17;;
22131;SDS011;11232;51.748;19.390;2022-11-15T15:11:28;37.70;;;21.60;;
22131;SDS011;11232;51.748;19.390;2022-11-15T15:13:55;46.03;;;22.10;;
22131;SDS011;11232;51.748;19.390;2022-11-15T15:16:26;44.17;;;22.97;;
22131;SDS011;11232;51.748;19.390;2022-11-15T15:18:52;46.20;;;22.77;;
22131;SDS011;11232;51.748;19.390;2022-11-15T15:21:24;42.90;;;22.67;;
22131;SDS011;11232;51.748;19.390;2022-11-15T15:23:52;46.37;;;22.57;;
22131;SDS011;11232;51.748;19.390;2022-11-15T15:26:21;38.23;;;22.33;;
22131;SDS011;11232;51.748;19.390;2022-11-15T15:28:48;46.37;;;22.70;;
22131;SDS011;11232;51.748;19.390;2022-11-15T15:31:15;45.57;;;24.70;;
22131;SDS011;11232;51.748;19.390;2022-11-15T15:33:41;43.80;;;23.80;;
22131;SDS011;11232;51.748;19.390;2022-11-15T15:36:10;47.23;;;25.20;;
22131;SDS011;11232;51.748;19.390;2022-11-15T15:38:37;56.63;;;26.23;;
22131;SDS011;11232;51.748;19.390;2022-11-15T15:41:07;48.00;;;24.97;;
22131;SDS011;11232;51.748;19.390;2022-11-15T15:43:35;47.67;;;23.97;;
22131;SDS011;11232;51.748;19.390;2022-11-15T15:46:00;50.47;;;26.00;;
22131;SDS011;11232;51.748;19.390;2022-11-15T15:48:26;60.63;;;30.43;;
22131;SDS011;11232;51.748;19.390;2022-11-15T15:50:51;59.70;;;30.70;;
22131;SDS011;11232;51.748;19.390;2022-11-15T15:53:17;65.63;;;33.47;;
22131;SDS011;11232;51.748;19.390;2022-11-15T15:55:43;64.73;;;35.13;;
22131;SDS011;11232;51.748;19.390;2022-11-15T15:58:08;80.87;;;39.77;;
22131;SDS011;11232;51.748;19.390;2022-11-15T16:00:35;80.53;;;40.20;;
22131;SDS011;11232;51.748;19.390;2022-11-15T16:03:01;82.53;;;41.00;;
22131;SDS011;11232;51.748;19.390;2022-11-15T16:05:27;85.93;;;41.63;;
22131;SDS011;11232;51.748;19.390;2022-11-15T16:07:53;81.33;;;40.43;;
22131;SDS011;11232;51.748;19.390;2022-11-15T16:12:52;63.13;;;34.70;;
22131;SDS011;11232;51.748;19.390;2022-11-15T16:15:19;66.93;;;34.83;;
22131;SDS011;11232;51.748;19.390;2022-11-15T16:17:55;67.90;;;35.67;;
22131;SDS011;11232;51.748;19.390;2022-11-15T16:20:32;71.77;;;33.67;;
22131;SDS011;11232;51.748;19.390;2022-11-15T16:23:00;67.90;;;33.23;;
22131;SDS011;11232;51.748;19.390;2022-11-15T16:25:27;67.63;;;34.87;;
22131;SDS011;11232;51.748;19.390;2022-11-15T16:27:53;72.67;;;33.50;;
22131;SDS011;11232;51.748;19.390;2022-11-15T16:30:20;69.70;;;34.13;;
22131;SDS011;11232;51.748;19.390;2022-11-15T16:32:47;69.63;;;33.30;;
22131;SDS011;11232;51.748;19.390;2022-11-15T16:35:13;65.20;;;33.70;;